sensor_id;sensor_type;location;lat;lon;timestamp;P1;durP1;ratioP1;P2;durP2;ratioP2
61617;SDS011;47518;51.776;9.370;2023-03-23T00:01:19;3.47;;;2.75;;
61617;SDS011;47518;51.776;9.370;2023-03-23T00:03:47;3.30;;;3.00;;
61617;SDS011;47518;51.776;9.370;2023-03-23T00:06:14;3.85;;;3.10;;
61617;SDS011;47518;51.776;9.370;2023-03-23T00:08:44;3.80;;;3.38;;
61617;SDS011;47518;51.776;9.370;2023-03-23T00:11:14;4.05;;;3.28;;
61617;SDS011;47518;51.776;9.370;2023-03-23T00:13:43;3.63;;;3.30;;
61617;SDS011;47518;51.776;9.370;2023-03-23T00:16:10;4.03;;;3.67;;
61617;SDS011;47518;51.776;9.370;2023-03-23T00:18:45;4.72;;;3.60;;
61617;SDS011;47518;51.776;9.370;2023-03-23T00:21:11;8.88;;;5.03;;
61617;SDS011;47518;51.776;9.370;2023-03-23T00:23:39;5.47;;;3.70;;
61617;SDS011;47518;51.776;9.370;2023-03-23T00:26:05;4.20;;;3.38;;
61617;SDS011;47518;51.776;9.370;2023-03-23T00:28:30;3.20;;;2.90;;
61617;SDS011;47518;51.776;9.370;2023-03-23T00:30:58;3.58;;;3.22;;
61617;SDS011;47518;51.776;9.370;2023-03-23T00:33:27;4.95;;;3.20;;
61617;SDS011;47518;51.776;9.370;2023-03-23T00:35:54;6.07;;;3.50;;
61617;SDS011;47518;51.776;9.370;2023-03-23T00:38:23;8.23;;;3.92;;
61617;SDS011;47518;51.776;9.370;2023-03-23T00:40:49;6.93;;;4.40;;
61617;SDS011;47518;51.776;9.370;2023-03-23T00:43:16;7.57;;;4.10;;
61617;SDS011;47518;51.776;9.370;2023-03-23T00:45:43;8.20;;;4.65;;
61617;SDS011;47518;51.776;9.370;2023-03-23T00:48:10;4.00;;;3.42;;
61617;SDS011;47518;51.776;9.370;2023-03-23T00:50:37;6.10;;;3.15;;
61617;SDS011;47518;51.776;9.370;2023-03-23T00:53:03;3.75;;;3.42;;
61617;SDS011;47518;51.776;9.370;2023-03-23T00:55:31;4.65;;;3.30;;
61617;SDS011;47518;51.776;9.370;2023-03-23T00:57:58;3.60;;;3.30;;
61617;SDS011;47518;51.776;9.370;2023-03-23T01:00:24;3.60;;;3.28;;
61617;SDS011;47518;51.776;9.370;2023-03-23T01:02:50;3.22;;;3.00;;
61617;SDS011;47518;51.776;9.370;2023-03-23T01:05:16;4.70;;;3.63;;
61617;SDS011;47518;51.776;9.370;2023-03-23T01:07:42;3.50;;;3.20;;
61617;SDS011;47518;51.776;9.370;2023-03-23T01:10:09;3.53;;;3.22;;
61617;SDS011;47518;51.776;9.370;2023-03-23T01:12:37;5.72;;;3.55;;
61617;SDS011;47518;51.776;9.370;2023-03-23T01:15:03;3.25;;;2.90;;
61617;SDS011;47518;51.776;9.370;2023-03-23T01:17:29;3.25;;;2.85;;
61617;SDS011;47518;51.776;9.370;2023-03-23T01:19:55;3.70;;;3.10;;
61617;SDS011;47518;51.776;9.370;2023-03-23T01:22:21;5.93;;;3.25;;
61617;SDS011;47518;51.776;9.370;2023-03-23T01:24:46;3.63;;;3.20;;
61617;SDS011;47518;51.776;9.370;2023-03-23T01:27:12;3.15;;;2.90;;
61617;SDS011;47518;51.776;9.370;2023-03-23T01:29:37;3.30;;;3.00;;
61617;SDS011;47518;51.776;9.370;2023-03-23T01:32:02;4.03;;;3.17;;
61617;SDS011;47518;51.776;9.370;2023-03-23T01:34:29;5.35;;;3.35;;
61617;SDS011;47518;51.776;9.370;2023-03-23T01:36:55;3.88;;;2.95;;
61617;SDS011;47518;51.776;9.370;2023-03-23T01:39:20;3.50;;;3.20;;
61617;SDS011;47518;51.776;9.370;2023-03-23T01:41:46;4.55;;;2.92;;
61617;SDS011;47518;51.776;9.370;2023-03-23T01:57:25;4.28;;;3.08;;
61617;SDS011;47518;51.776;9.370;2023-03-23T01:59:52;4.22;;;3.00;;
61617;SDS011;47518;51.776;9.370;2023-03-23T02:02:21;3.13;;;2.92;;
61617;SDS011;47518;51.776;9.370;2023-03-23T02:04:48;3.55;;;2.90;;
61617;SDS011;47518;51.776;9.370;2023-03-23T02:07:15;4.65;;;3.20;;
61617;SDS011;47518;51.776;9.370;2023-03-23T02:09:43;3.42;;;2.90;;
61617;SDS011;47518;51.776;9.370;2023-03-23T02:12:08;4.32;;;3.30;;
61617;SDS011;47518;51.776;9.370;2023-03-23T02:14:34;3.65;;;2.92;;
61617;SDS011;47518;51.776;9.370;2023-03-23T02:17:02;6.00;;;2.85;;
61617;SDS011;47518;51.776;9.370;2023-03-23T02:32:50;4.45;;;3.58;;
61617;SDS011;47518;51.776;9.370;2023-03-23T02:46:00;3.85;;;2.83;;
61617;SDS011;47518;51.776;9.370;2023-03-23T02:48:31;3.60;;;3.15;;
61617;SDS011;47518;51.776;9.370;2023-03-23T02:50:57;3.45;;;3.00;;
61617;SDS011;47518;51.776;9.370;2023-03-23T02:53:25;3.35;;;3.05;;
61617;SDS011;47518;51.776;9.370;2023-03-23T02:55:53;3.20;;;2.90;;
61617;SDS011;47518;51.776;9.370;2023-03-23T02:58:21;3.50;;;3.20;;
61617;SDS011;47518;51.776;9.370;2023-03-23T03:00:48;3.88;;;3.00;;
61617;SDS011;47518;51.776;9.370;2023-03-23T03:03:15;3.42;;;2.90;;
61617;SDS011;47518;51.776;9.370;2023-03-23T03:05:44;4.45;;;2.90;;
61617;SDS011;47518;51.776;9.370;2023-03-23T03:21:49;3.40;;;3.10;;
61617;SDS011;47518;51.776;9.370;2023-03-23T03:24:16;5.25;;;3.90;;
61617;SDS011;47518;51.776;9.370;2023-03-23T03:26:45;4.97;;;3.78;;
61617;SDS011;47518;51.776;9.370;2023-03-23T03:29:12;3.85;;;3.55;;
61617;SDS011;47518;51.776;9.370;2023-03-23T03:31:39;3.67;;;3.35;;
61617;SDS011;47518;51.776;9.370;2023-03-23T03:34:10;3.88;;;3.50;;
61617;SDS011;47518;51.776;9.370;2023-03-23T03:36:38;5.18;;;3.60;;
61617;SDS011;47518;51.776;9.370;2023-03-23T03:39:07;4.45;;;3.80;;
61617;SDS011;47518;51.776;9.370;2023-03-23T03:41:35;5.38;;;4.38;;
61617;SDS011;47518;51.776;9.370;2023-03-23T03:44:04;5.80;;;3.58;;
61617;SDS011;47518;51.776;9.370;2023-03-23T03:46:31;4.63;;;3.90;;
61617;SDS011;47518;51.776;9.370;2023-03-23T03:48:58;4.50;;;3.70;;
61617;SDS011;47518;51.776;9.370;2023-03-23T03:51:26;4.18;;;3.65;;
61617;SDS011;47518;51.776;9.370;2023-03-23T03:53:52;5.15;;;4.00;;
61617;SDS011;47518;51.776;9.370;2023-03-23T03:56:18;5.20;;;3.75;;
61617;SDS011;47518;51.776;9.370;2023-03-23T03:58:47;4.13;;;3.58;;
61617;SDS011;47518;51.776;9.370;2023-03-23T04:01:14;4.20;;;3.47;;
61617;SDS011;47518;51.776;9.370;2023-03-23T04:03:42;4.10;;;3.58;;
61617;SDS011;47518;51.776;9.370;2023-03-23T04:06:10;5.85;;;3.67;;
61617;SDS011;47518;51.776;9.370;2023-03-23T04:08:37;4.75;;;3.70;;
61617;SDS011;47518;51.776;9.370;2023-03-23T04:11:06;5.20;;;4.18;;
61617;SDS011;47518;51.776;9.370;2023-03-23T04:13:32;4.60;;;3.50;;
61617;SDS011;47518;51.776;9.370;2023-03-23T04:15:57;3.72;;;3.30;;
61617;SDS011;47518;51.776;9.370;2023-03-23T04:18:23;7.40;;;4.40;;
61617;SDS011;47518;51.776;9.370;2023-03-23T04:20:49;4.10;;;3.70;;
61617;SDS011;47518;51.776;9.370;2023-03-23T04:23:15;4.00;;;3.60;;
61617;SDS011;47518;51.776;9.370;2023-03-23T04:25:46;5.28;;;3.70;;
61617;SDS011;47518;51.776;9.370;2023-03-23T04:28:16;3.55;;;3.25;;
61617;SDS011;47518;51.776;9.370;2023-03-23T04:30:43;3.35;;;3.05;;
61617;SDS011;47518;51.776;9.370;2023-03-23T04:33:10;3.55;;;3.25;;
61617;SDS011;47518;51.776;9.370;2023-03-23T04:35:41;3.47;;;3.13;;
61617;SDS011;47518;51.776;9.370;2023-03-23T04:38:07;3.40;;;3.10;;
61617;SDS011;47518;51.776;9.370;2023-03-23T04:40:38;4.65;;;3.45;;
61617;SDS011;47518;51.776;9.370;2023-03-23T04:43:05;4.68;;;3.17;;
61617;SDS011;47518;51.776;9.370;2023-03-23T04:45:34;3.58;;;3.28;;
61617;SDS011;47518;51.776;9.370;2023-03-23T04:48:02;4.15;;;3.30;;
61617;SDS011;47518;51.776;9.370;2023-03-23T04:50:31;3.65;;;3.20;;
61617;SDS011;47518;51.776;9.370;2023-03-23T04:52:59;5.68;;;3.28;;
61617;SDS011;47518;51.776;9.370;2023-03-23T04:55:37;3.35;;;3.05;;
61617;SDS011;47518;51.776;9.370;2023-03-23T04:58:03;4.55;;;3.40;;
61617;SDS011;47518;51.776;9.370;2023-03-23T05:00:30;4.13;;;2.92;;
61617;SDS011;47518;51.776;9.370;2023-03-23T05:02:57;3.65;;;3.20;;
61617;SDS011;47518;51.776;9.370;2023-03-23T05:05:24;4.25;;;3.83;;
61617;SDS011;47518;51.776;9.370;2023-03-23T05:07:52;3.25;;;2.90;;
61617;SDS011;47518;51.776;9.370;2023-03-23T05:10:18;3.58;;;3.05;;
61617;SDS011;47518;51.776;9.370;2023-03-23T05:12:44;4.85;;;2.80;;
61617;SDS011;47518;51.776;9.370;2023-03-23T05:15:11;3.63;;;3.33;;
61617;SDS011;47518;51.776;9.370;2023-03-23T05:17:41;3.28;;;3.05;;
61617;SDS011;47518;51.776;9.370;2023-03-23T05:20:09;3.75;;;2.90;;
61617;SDS011;47518;51.776;9.370;2023-03-23T05:22:37;3.63;;;3.33;;
61617;SDS011;47518;51.776;9.370;2023-03-23T05:25:03;4.03;;;3.20;;
61617;SDS011;47518;51.776;9.370;2023-03-23T05:27:30;3.88;;;3.53;;
61617;SDS011;47518;51.776;9.370;2023-03-23T05:29:57;3.47;;;3.10;;
61617;SDS011;47518;51.776;9.370;2023-03-23T05:32:24;3.42;;;2.95;;
61617;SDS011;47518;51.776;9.370;2023-03-23T05:34:55;3.28;;;3.00;;
61617;SDS011;47518;51.776;9.370;2023-03-23T05:37:22;3.20;;;2.90;;
61617;SDS011;47518;51.776;9.370;2023-03-23T05:39:49;3.20;;;2.90;;
61617;SDS011;47518;51.776;9.370;2023-03-23T05:42:18;2.95;;;2.72;;
61617;SDS011;47518;51.776;9.370;2023-03-23T05:44:45;4.10;;;3.20;;
61617;SDS011;47518;51.776;9.370;2023-03-23T05:47:11;3.58;;;3.28;;
61617;SDS011;47518;51.776;9.370;2023-03-23T05:49:37;2.90;;;2.70;;
61617;SDS011;47518;51.776;9.370;2023-03-23T05:52:04;3.00;;;2.70;;
61617;SDS011;47518;51.776;9.370;2023-03-23T05:54:29;3.38;;;3.08;;
61617;SDS011;47518;51.776;9.370;2023-03-23T05:56:54;3.40;;;2.83;;
61617;SDS011;47518;51.776;9.370;2023-03-23T05:59:23;3.13;;;2.80;;
61617;SDS011;47518;51.776;9.370;2023-03-23T06:01:51;3.35;;;2.80;;
61617;SDS011;47518;51.776;9.370;2023-03-23T06:04:19;2.80;;;2.60;;
61617;SDS011;47518;51.776;9.370;2023-03-23T06:06:50;3.10;;;2.88;;
61617;SDS011;47518;51.776;9.370;2023-03-23T06:09:17;2.90;;;2.70;;
61617;SDS011;47518;51.776;9.370;2023-03-23T06:43:40;3.50;;;3.20;;
61617;SDS011;47518;51.776;9.370;2023-03-23T06:46:09;2.95;;;2.75;;
61617;SDS011;47518;51.776;9.370;2023-03-23T06:48:39;3.20;;;3.00;;
61617;SDS011;47518;51.776;9.370;2023-03-23T06:51:33;3.08;;;2.75;;
61617;SDS011;47518;51.776;9.370;2023-03-23T06:54:17;2.72;;;2.53;;
61617;SDS011;47518;51.776;9.370;2023-03-23T06:56:43;2.90;;;2.70;;
61617;SDS011;47518;51.776;9.370;2023-03-23T06:59:08;3.00;;;2.80;;
61617;SDS011;47518;51.776;9.370;2023-03-23T07:02:20;3.88;;;2.88;;
61617;SDS011;47518;51.776;9.370;2023-03-23T07:04:37;2.95;;;2.75;;
61617;SDS011;47518;51.776;9.370;2023-03-23T07:08:37;3.47;;;2.70;;
61617;SDS011;47518;51.776;9.370;2023-03-23T07:10:14;3.38;;;2.95;;
61617;SDS011;47518;51.776;9.370;2023-03-23T07:12:48;3.35;;;3.05;;
61617;SDS011;47518;51.776;9.370;2023-03-23T07:15:20;3.20;;;3.00;;
61617;SDS011;47518;51.776;9.370;2023-03-23T07:17:50;3.03;;;2.72;;
61617;SDS011;47518;51.776;9.370;2023-03-23T07:20:19;2.92;;;2.72;;
61617;SDS011;47518;51.776;9.370;2023-03-23T07:22:51;3.20;;;3.00;;
61617;SDS011;47518;51.776;9.370;2023-03-23T07:26:27;3.00;;;2.80;;
61617;SDS011;47518;51.776;9.370;2023-03-23T07:29:21;3.75;;;3.13;;
61617;SDS011;47518;51.776;9.370;2023-03-23T07:31:44;3.13;;;2.90;;
61617;SDS011;47518;51.776;9.370;2023-03-23T07:37:51;3.47;;;2.78;;
61617;SDS011;47518;51.776;9.370;2023-03-23T07:40:38;3.05;;;2.75;;
61617;SDS011;47518;51.776;9.370;2023-03-23T07:43:23;3.13;;;2.92;;
61617;SDS011;47518;51.776;9.370;2023-03-23T07:45:51;3.20;;;2.90;;
61617;SDS011;47518;51.776;9.370;2023-03-23T07:48:29;3.25;;;2.95;;
61617;SDS011;47518;51.776;9.370;2023-03-23T07:50:58;3.38;;;3.10;;
61617;SDS011;47518;51.776;9.370;2023-03-23T08:00:10;3.38;;;3.08;;
61617;SDS011;47518;51.776;9.370;2023-03-23T08:02:41;2.92;;;2.72;;
61617;SDS011;47518;51.776;9.370;2023-03-23T08:05:23;3.70;;;3.40;;
61617;SDS011;47518;51.776;9.370;2023-03-23T08:08:19;3.55;;;3.17;;
61617;SDS011;47518;51.776;9.370;2023-03-23T08:18:24;3.28;;;2.95;;
61617;SDS011;47518;51.776;9.370;2023-03-23T08:20:59;4.22;;;2.85;;
61617;SDS011;47518;51.776;9.370;2023-03-23T08:23:35;3.10;;;2.90;;
61617;SDS011;47518;51.776;9.370;2023-03-23T08:26:22;3.70;;;3.33;;
61617;SDS011;47518;51.776;9.370;2023-03-23T08:31:43;3.53;;;2.85;;
61617;SDS011;47518;51.776;9.370;2023-03-23T08:38:41;3.25;;;3.03;;
61617;SDS011;47518;51.776;9.370;2023-03-23T08:41:46;3.22;;;2.92;;
61617;SDS011;47518;51.776;9.370;2023-03-23T08:44:15;4.68;;;3.15;;
61617;SDS011;47518;51.776;9.370;2023-03-23T08:49:57;3.90;;;3.00;;
61617;SDS011;47518;51.776;9.370;2023-03-23T08:52:32;3.78;;;3.38;;
61617;SDS011;47518;51.776;9.370;2023-03-23T08:54:58;3.13;;;2.92;;
61617;SDS011;47518;51.776;9.370;2023-03-23T08:57:25;3.30;;;3.00;;
61617;SDS011;47518;51.776;9.370;2023-03-23T09:02:52;3.30;;;3.00;;
61617;SDS011;47518;51.776;9.370;2023-03-23T09:05:41;4.13;;;3.10;;
61617;SDS011;47518;51.776;9.370;2023-03-23T09:08:11;3.30;;;3.00;;
61617;SDS011;47518;51.776;9.370;2023-03-23T09:10:53;3.58;;;3.20;;
61617;SDS011;47518;51.776;9.370;2023-03-23T09:13:35;4.53;;;2.88;;
61617;SDS011;47518;51.776;9.370;2023-03-23T09:21:49;2.92;;;2.72;;
61617;SDS011;47518;51.776;9.370;2023-03-23T09:24:23;3.20;;;2.90;;
61617;SDS011;47518;51.776;9.370;2023-03-23T09:26:55;3.47;;;3.00;;
61617;SDS011;47518;51.776;9.370;2023-03-23T09:29:33;3.33;;;2.80;;
61617;SDS011;47518;51.776;9.370;2023-03-23T09:32:00;3.35;;;2.83;;
61617;SDS011;47518;51.776;9.370;2023-03-23T09:34:34;4.30;;;3.05;;
61617;SDS011;47518;51.776;9.370;2023-03-23T09:37:27;3.10;;;2.90;;
61617;SDS011;47518;51.776;9.370;2023-03-23T09:40:17;3.03;;;2.80;;
61617;SDS011;47518;51.776;9.370;2023-03-23T09:43:46;4.25;;;2.90;;
61617;SDS011;47518;51.776;9.370;2023-03-23T09:57:01;3.72;;;2.90;;
61617;SDS011;47518;51.776;9.370;2023-03-23T10:00:31;2.95;;;2.60;;
61617;SDS011;47518;51.776;9.370;2023-03-23T10:42:03;2.80;;;2.55;;
61617;SDS011;47518;51.776;9.370;2023-03-23T10:44:40;6.40;;;3.30;;
61617;SDS011;47518;51.776;9.370;2023-03-23T10:47:25;6.13;;;2.10;;
61617;SDS011;47518;51.776;9.370;2023-03-23T10:50:10;4.22;;;2.58;;
61617;SDS011;47518;51.776;9.370;2023-03-23T10:53:11;8.20;;;4.10;;
61617;SDS011;47518;51.776;9.370;2023-03-23T10:55:50;4.22;;;3.00;;
61617;SDS011;47518;51.776;9.370;2023-03-23T11:01:14;4.60;;;3.03;;
61617;SDS011;47518;51.776;9.370;2023-03-23T11:04:13;5.13;;;3.35;;
61617;SDS011;47518;51.776;9.370;2023-03-23T11:07:13;3.97;;;2.60;;
61617;SDS011;47518;51.776;9.370;2023-03-23T11:10:54;3.33;;;2.78;;
61617;SDS011;47518;51.776;9.370;2023-03-23T11:13:45;3.95;;;2.72;;
61617;SDS011;47518;51.776;9.370;2023-03-23T11:32:28;4.53;;;2.80;;
61617;SDS011;47518;51.776;9.370;2023-03-23T11:35:06;4.53;;;3.03;;
61617;SDS011;47518;51.776;9.370;2023-03-23T11:38:22;4.65;;;2.80;;
61617;SDS011;47518;51.776;9.370;2023-03-23T11:44:46;4.30;;;2.85;;
61617;SDS011;47518;51.776;9.370;2023-03-23T11:47:24;6.50;;;3.00;;
61617;SDS011;47518;51.776;9.370;2023-03-23T11:58:13;4.22;;;2.70;;
61617;SDS011;47518;51.776;9.370;2023-03-23T12:01:03;3.55;;;2.78;;
61617;SDS011;47518;51.776;9.370;2023-03-23T12:03:22;5.93;;;2.60;;
61617;SDS011;47518;51.776;9.370;2023-03-23T12:22:33;4.45;;;3.15;;
61617;SDS011;47518;51.776;9.370;2023-03-23T12:51:44;5.10;;;2.63;;
61617;SDS011;47518;51.776;9.370;2023-03-23T12:54:42;4.78;;;3.10;;
61617;SDS011;47518;51.776;9.370;2023-03-23T13:00:28;3.72;;;2.47;;
61617;SDS011;47518;51.776;9.370;2023-03-23T13:03:00;3.28;;;2.60;;
61617;SDS011;47518;51.776;9.370;2023-03-23T13:05:44;3.25;;;2.50;;
61617;SDS011;47518;51.776;9.370;2023-03-23T13:08:28;3.80;;;2.55;;
61617;SDS011;47518;51.776;9.370;2023-03-23T13:11:19;3.25;;;2.58;;
61617;SDS011;47518;51.776;9.370;2023-03-23T13:13:55;4.82;;;2.80;;
61617;SDS011;47518;51.776;9.370;2023-03-23T13:31:00;5.38;;;3.30;;
61617;SDS011;47518;51.776;9.370;2023-03-23T13:33:38;6.35;;;3.42;;
61617;SDS011;47518;51.776;9.370;2023-03-23T13:49:44;7.78;;;4.05;;
61617;SDS011;47518;51.776;9.370;2023-03-23T13:51:58;5.18;;;3.63;;
61617;SDS011;47518;51.776;9.370;2023-03-23T13:54:41;6.35;;;3.47;;
61617;SDS011;47518;51.776;9.370;2023-03-23T14:08:42;4.43;;;3.35;;
61617;SDS011;47518;51.776;9.370;2023-03-23T14:16:49;5.68;;;3.70;;
61617;SDS011;47518;51.776;9.370;2023-03-23T14:22:17;3.78;;;3.40;;
61617;SDS011;47518;51.776;9.370;2023-03-23T14:35:29;3.90;;;3.60;;
61617;SDS011;47518;51.776;9.370;2023-03-23T14:37:57;6.00;;;3.60;;
61617;SDS011;47518;51.776;9.370;2023-03-23T14:40:25;5.65;;;4.00;;
61617;SDS011;47518;51.776;9.370;2023-03-23T14:42:52;4.63;;;4.03;;
61617;SDS011;47518;51.776;9.370;2023-03-23T14:45:20;5.70;;;4.15;;
61617;SDS011;47518;51.776;9.370;2023-03-23T14:48:01;5.10;;;4.15;;
61617;SDS011;47518;51.776;9.370;2023-03-23T14:50:29;4.82;;;4.38;;
61617;SDS011;47518;51.776;9.370;2023-03-23T14:53:09;7.20;;;4.50;;
61617;SDS011;47518;51.776;9.370;2023-03-23T14:55:47;5.22;;;4.72;;
61617;SDS011;47518;51.776;9.370;2023-03-23T14:58:14;5.80;;;4.50;;
61617;SDS011;47518;51.776;9.370;2023-03-23T15:00:44;4.38;;;3.92;;
61617;SDS011;47518;51.776;9.370;2023-03-23T15:03:24;11.73;;;5.50;;
61617;SDS011;47518;51.776;9.370;2023-03-23T15:05:55;4.22;;;3.90;;
61617;SDS011;47518;51.776;9.370;2023-03-23T15:08:35;4.38;;;3.95;;
61617;SDS011;47518;51.776;9.370;2023-03-23T15:11:27;4.83;;;3.80;;
61617;SDS011;47518;51.776;9.370;2023-03-23T15:14:07;4.03;;;3.60;;
61617;SDS011;47518;51.776;9.370;2023-03-23T15:16:38;5.45;;;3.78;;
61617;SDS011;47518;51.776;9.370;2023-03-23T15:25:19;3.90;;;3.58;;
61617;SDS011;47518;51.776;9.370;2023-03-23T15:27:50;3.83;;;3.50;;
61617;SDS011;47518;51.776;9.370;2023-03-23T15:30:29;3.95;;;3.30;;
61617;SDS011;47518;51.776;9.370;2023-03-23T15:33:10;8.10;;;4.32;;
61617;SDS011;47518;51.776;9.370;2023-03-23T15:35:48;5.50;;;4.35;;
61617;SDS011;47518;51.776;9.370;2023-03-23T15:38:20;9.48;;;5.82;;
61617;SDS011;47518;51.776;9.370;2023-03-23T15:40:58;5.05;;;4.20;;
61617;SDS011;47518;51.776;9.370;2023-03-23T15:43:31;6.53;;;4.40;;
61617;SDS011;47518;51.776;9.370;2023-03-23T15:46:02;6.80;;;5.57;;
61617;SDS011;47518;51.776;9.370;2023-03-23T15:48:32;7.45;;;6.53;;
61617;SDS011;47518;51.776;9.370;2023-03-23T15:51:22;5.75;;;4.80;;
61617;SDS011;47518;51.776;9.370;2023-03-23T15:54:05;5.43;;;4.60;;
61617;SDS011;47518;51.776;9.370;2023-03-23T15:56:47;6.15;;;4.80;;
61617;SDS011;47518;51.776;9.370;2023-03-23T15:59:26;5.97;;;4.57;;
61617;SDS011;47518;51.776;9.370;2023-03-23T16:02:01;5.78;;;3.92;;
61617;SDS011;47518;51.776;9.370;2023-03-23T16:04:29;5.00;;;3.90;;
61617;SDS011;47518;51.776;9.370;2023-03-23T16:07:10;7.03;;;4.13;;
61617;SDS011;47518;51.776;9.370;2023-03-23T16:09:41;5.63;;;4.45;;
61617;SDS011;47518;51.776;9.370;2023-03-23T16:12:16;6.15;;;5.18;;
61617;SDS011;47518;51.776;9.370;2023-03-23T16:15:08;6.97;;;4.95;;
61617;SDS011;47518;51.776;9.370;2023-03-23T16:17:36;8.50;;;5.07;;
61617;SDS011;47518;51.776;9.370;2023-03-23T16:20:21;6.85;;;5.18;;
61617;SDS011;47518;51.776;9.370;2023-03-23T16:25:49;6.45;;;4.40;;
61617;SDS011;47518;51.776;9.370;2023-03-23T16:28:20;7.47;;;6.38;;
61617;SDS011;47518;51.776;9.370;2023-03-23T16:31:05;6.95;;;6.25;;
61617;SDS011;47518;51.776;9.370;2023-03-23T16:33:41;5.80;;;5.20;;
61617;SDS011;47518;51.776;9.370;2023-03-23T16:40:04;7.82;;;6.30;;
61617;SDS011;47518;51.776;9.370;2023-03-23T16:42:35;6.30;;;5.68;;
61617;SDS011;47518;51.776;9.370;2023-03-23T16:45:04;9.02;;;7.60;;
61617;SDS011;47518;51.776;9.370;2023-03-23T16:47:33;13.18;;;10.60;;
61617;SDS011;47518;51.776;9.370;2023-03-23T16:50:13;12.93;;;9.75;;
61617;SDS011;47518;51.776;9.370;2023-03-23T16:52:59;10.40;;;8.48;;
61617;SDS011;47518;51.776;9.370;2023-03-23T16:55:32;9.60;;;7.00;;
61617;SDS011;47518;51.776;9.370;2023-03-23T16:58:04;8.38;;;6.50;;
61617;SDS011;47518;51.776;9.370;2023-03-23T17:00:31;6.75;;;6.03;;
61617;SDS011;47518;51.776;9.370;2023-03-23T17:02:59;4.72;;;4.30;;
61617;SDS011;47518;51.776;9.370;2023-03-23T17:05:26;6.65;;;5.05;;
61617;SDS011;47518;51.776;9.370;2023-03-23T17:07:53;6.60;;;4.43;;
61617;SDS011;47518;51.776;9.370;2023-03-23T17:10:29;5.50;;;4.53;;
61617;SDS011;47518;51.776;9.370;2023-03-23T17:13:10;7.82;;;5.30;;
61617;SDS011;47518;51.776;9.370;2023-03-23T17:15:50;7.10;;;5.75;;
61617;SDS011;47518;51.776;9.370;2023-03-23T17:18:30;9.57;;;7.57;;
61617;SDS011;47518;51.776;9.370;2023-03-23T17:21:02;10.00;;;7.47;;
61617;SDS011;47518;51.776;9.370;2023-03-23T17:23:43;9.55;;;7.80;;
61617;SDS011;47518;51.776;9.370;2023-03-23T17:26:12;11.13;;;7.93;;
61617;SDS011;47518;51.776;9.370;2023-03-23T17:28:40;6.95;;;6.25;;
61617;SDS011;47518;51.776;9.370;2023-03-23T17:31:11;8.02;;;5.82;;
61617;SDS011;47518;51.776;9.370;2023-03-23T17:33:41;9.65;;;7.90;;
61617;SDS011;47518;51.776;9.370;2023-03-23T17:36:14;7.40;;;6.60;;
61617;SDS011;47518;51.776;9.370;2023-03-23T17:39:17;9.25;;;6.35;;
61617;SDS011;47518;51.776;9.370;2023-03-23T17:41:53;7.55;;;5.72;;
61617;SDS011;47518;51.776;9.370;2023-03-23T17:44:41;9.23;;;6.53;;
61617;SDS011;47518;51.776;9.370;2023-03-23T17:47:16;8.90;;;6.55;;
61617;SDS011;47518;51.776;9.370;2023-03-23T17:49:52;11.27;;;8.50;;
61617;SDS011;47518;51.776;9.370;2023-03-23T17:52:27;11.48;;;8.80;;
61617;SDS011;47518;51.776;9.370;2023-03-23T17:55:01;11.43;;;8.18;;
61617;SDS011;47518;51.776;9.370;2023-03-23T17:57:36;10.88;;;6.95;;
61617;SDS011;47518;51.776;9.370;2023-03-23T18:00:03;6.65;;;5.97;;
61617;SDS011;47518;51.776;9.370;2023-03-23T18:02:41;10.20;;;6.80;;
61617;SDS011;47518;51.776;9.370;2023-03-23T18:05:12;9.00;;;6.40;;
61617;SDS011;47518;51.776;9.370;2023-03-23T18:07:38;6.05;;;5.45;;
61617;SDS011;47518;51.776;9.370;2023-03-23T18:10:04;7.00;;;5.40;;
61617;SDS011;47518;51.776;9.370;2023-03-23T18:12:38;10.02;;;6.10;;
61617;SDS011;47518;51.776;9.370;2023-03-23T18:15:07;9.68;;;7.78;;
61617;SDS011;47518;51.776;9.370;2023-03-23T18:17:34;12.00;;;8.85;;
61617;SDS011;47518;51.776;9.370;2023-03-23T18:20:00;12.23;;;6.75;;
61617;SDS011;47518;51.776;9.370;2023-03-23T18:22:36;7.90;;;7.07;;
61617;SDS011;47518;51.776;9.370;2023-03-23T18:25:12;9.52;;;7.70;;
61617;SDS011;47518;51.776;9.370;2023-03-23T18:27:37;12.83;;;8.30;;
61617;SDS011;47518;51.776;9.370;2023-03-23T18:30:22;13.90;;;9.65;;
61617;SDS011;47518;51.776;9.370;2023-03-23T18:33:01;11.02;;;7.40;;
61617;SDS011;47518;51.776;9.370;2023-03-23T18:44:21;11.55;;;8.60;;
61617;SDS011;47518;51.776;9.370;2023-03-23T18:47:05;10.10;;;8.23;;
61617;SDS011;47518;51.776;9.370;2023-03-23T18:49:33;13.60;;;9.35;;
61617;SDS011;47518;51.776;9.370;2023-03-23T18:51:59;11.18;;;8.60;;
61617;SDS011;47518;51.776;9.370;2023-03-23T18:57:30;11.32;;;8.25;;
61617;SDS011;47518;51.776;9.370;2023-03-23T19:00:04;12.13;;;9.15;;
61617;SDS011;47518;51.776;9.370;2023-03-23T19:02:31;10.57;;;8.48;;
61617;SDS011;47518;51.776;9.370;2023-03-23T19:05:00;10.50;;;8.77;;
61617;SDS011;47518;51.776;9.370;2023-03-23T19:07:28;12.80;;;8.30;;
61617;SDS011;47518;51.776;9.370;2023-03-23T19:10:18;9.18;;;7.45;;
61617;SDS011;47518;51.776;9.370;2023-03-23T19:13:00;9.13;;;7.32;;
61617;SDS011;47518;51.776;9.370;2023-03-23T19:15:37;9.60;;;7.80;;
61617;SDS011;47518;51.776;9.370;2023-03-23T19:21:31;13.65;;;10.38;;
61617;SDS011;47518;51.776;9.370;2023-03-23T19:24:23;9.40;;;6.75;;
61617;SDS011;47518;51.776;9.370;2023-03-23T19:26:50;10.55;;;8.20;;
61617;SDS011;47518;51.776;9.370;2023-03-23T19:29:21;9.30;;;7.72;;
61617;SDS011;47518;51.776;9.370;2023-03-23T19:31:50;10.25;;;9.10;;
61617;SDS011;47518;51.776;9.370;2023-03-23T19:35:24;11.13;;;8.32;;
61617;SDS011;47518;51.776;9.370;2023-03-23T19:39:50;11.88;;;8.70;;
61617;SDS011;47518;51.776;9.370;2023-03-23T19:45:01;9.93;;;7.20;;
61617;SDS011;47518;51.776;9.370;2023-03-23T19:47:38;15.68;;;9.65;;
61617;SDS011;47518;51.776;9.370;2023-03-23T19:50:06;20.45;;;13.90;;
61617;SDS011;47518;51.776;9.370;2023-03-23T19:52:32;7.63;;;6.53;;
61617;SDS011;47518;51.776;9.370;2023-03-23T19:54:58;11.25;;;8.95;;
61617;SDS011;47518;51.776;9.370;2023-03-23T19:57:23;8.90;;;6.95;;
61617;SDS011;47518;51.776;9.370;2023-03-23T19:59:50;13.52;;;8.10;;
61617;SDS011;47518;51.776;9.370;2023-03-23T20:02:21;14.57;;;8.75;;
61617;SDS011;47518;51.776;9.370;2023-03-23T20:04:47;11.70;;;8.43;;
61617;SDS011;47518;51.776;9.370;2023-03-23T20:07:14;11.10;;;8.68;;
61617;SDS011;47518;51.776;9.370;2023-03-23T20:09:51;10.13;;;7.18;;
61617;SDS011;47518;51.776;9.370;2023-03-23T20:12:39;11.85;;;7.50;;
61617;SDS011;47518;51.776;9.370;2023-03-23T20:15:10;9.25;;;7.57;;
61617;SDS011;47518;51.776;9.370;2023-03-23T20:17:39;8.85;;;6.22;;
61617;SDS011;47518;51.776;9.370;2023-03-23T20:20:12;9.77;;;6.65;;
61617;SDS011;47518;51.776;9.370;2023-03-23T20:22:44;9.73;;;6.78;;
61617;SDS011;47518;51.776;9.370;2023-03-23T20:27:38;7.30;;;5.72;;
61617;SDS011;47518;51.776;9.370;2023-03-23T20:30:05;7.82;;;5.10;;
61617;SDS011;47518;51.776;9.370;2023-03-23T20:32:31;7.25;;;4.70;;
61617;SDS011;47518;51.776;9.370;2023-03-23T20:35:02;5.85;;;4.70;;
61617;SDS011;47518;51.776;9.370;2023-03-23T20:37:30;8.82;;;5.13;;
61617;SDS011;47518;51.776;9.370;2023-03-23T20:40:06;9.85;;;5.68;;
61617;SDS011;47518;51.776;9.370;2023-03-23T20:42:35;7.47;;;4.82;;
61617;SDS011;47518;51.776;9.370;2023-03-23T20:45:02;8.35;;;6.25;;
61617;SDS011;47518;51.776;9.370;2023-03-23T20:47:30;10.95;;;7.80;;
61617;SDS011;47518;51.776;9.370;2023-03-23T20:49:56;9.07;;;6.35;;
61617;SDS011;47518;51.776;9.370;2023-03-23T20:52:23;8.60;;;5.60;;
61617;SDS011;47518;51.776;9.370;2023-03-23T20:54:50;4.65;;;4.15;;
61617;SDS011;47518;51.776;9.370;2023-03-23T20:57:16;5.50;;;4.15;;
61617;SDS011;47518;51.776;9.370;2023-03-23T20:59:42;7.72;;;4.95;;
61617;SDS011;47518;51.776;9.370;2023-03-23T21:02:10;6.82;;;4.10;;